createdAt,value
2023-04-27T00:01:53.502Z,100262.44
2023-04-27T00:04:20.252Z,100252.84
2023-04-27T00:06:46.944Z,100256.25
2023-04-27T00:09:13.797Z,100257.16
2023-04-27T00:11:40.612Z,100257.19
2023-04-27T00:14:07.310Z,100259.78
2023-04-27T00:16:34.026Z,100260.69
2023-04-27T00:19:00.684Z,100264.19
2023-04-27T00:21:27.390Z,100267.66
2023-04-27T00:23:57.228Z,100262.47
2023-04-27T00:26:23.918Z,100263.31
2023-04-27T00:28:50.575Z,100265.03
2023-04-27T00:31:17.233Z,100259.84
2023-04-27T00:33:44.045Z,100262.47
2023-04-27T00:36:10.644Z,100263.34
2023-04-27T00:38:37.393Z,100262.47
2023-04-27T00:41:05.908Z,100267.69
2023-04-27T00:43:33.402Z,100259.88
2023-04-27T00:46:00.799Z,100261.59
2023-04-27T00:48:28.226Z,100259.03
2023-04-27T00:50:55.194Z,100264.22
2023-04-27T00:53:22.446Z,100264.22
2023-04-27T00:55:49.089Z,100263.34
2023-04-27T00:58:15.871Z,100261.59
2023-04-27T01:00:42.739Z,100265.97
2023-04-27T01:03:09.849Z,100259.88
2023-04-27T01:05:37.574Z,100258.97
2023-04-27T01:08:04.838Z,100259.84
2023-04-27T01:10:31.544Z,100265.09
2023-04-27T01:12:58.337Z,100260.75
2023-04-27T01:15:25.166Z,100266.81
2023-04-27T01:17:58.251Z,100273.78
2023-04-27T01:20:25.224Z,100262.47
2023-04-27T01:22:53.601Z,100270.28
2023-04-27T01:25:20.245Z,100267.69
2023-04-27T01:27:46.913Z,100276.34
2023-04-27T01:30:13.669Z,100273.78
2023-04-27T01:32:40.341Z,100276.34
2023-04-27T01:35:08.156Z,100273.78
2023-04-27T01:37:35.218Z,100278.06
2023-04-27T01:40:01.966Z,100279.78
2023-04-27T01:42:28.597Z,100285.00
2023-04-27T01:44:55.279Z,100282.38
2023-04-27T01:47:21.922Z,100284.16
2023-04-27T01:49:48.576Z,100282.44
2023-04-27T01:52:15.375Z,100287.59
2023-04-27T01:54:41.961Z,100285.03
2023-04-27T01:57:08.697Z,100277.22
2023-04-27T01:59:35.356Z,100283.28
2023-04-27T02:02:02.162Z,100298.03
2023-04-27T02:04:29.114Z,100293.69
2023-04-27T02:06:55.879Z,100294.53
2023-04-27T02:09:22.524Z,100298.88
2023-04-27T02:11:49.246Z,100290.22
2023-04-27T02:14:15.884Z,100297.16
2023-04-27T02:16:42.671Z,100296.28
2023-04-27T02:19:09.533Z,100295.38
2023-04-27T02:21:36.243Z,100293.66
2023-04-27T02:24:03.081Z,100293.63
2023-04-27T02:26:29.728Z,100304.97
2023-04-27T02:28:56.369Z,100301.38
2023-04-27T02:31:23.316Z,100304.84
2023-04-27T02:33:50.208Z,100305.78
2023-04-27T02:36:17.228Z,100310.09
2023-04-27T02:38:44.029Z,100308.31
2023-04-27T02:41:10.717Z,100310.03
2023-04-27T02:43:37.497Z,100303.09
2023-04-27T02:46:08.186Z,100308.34
2023-04-27T02:48:34.921Z,100305.75
2023-04-27T02:51:05.210Z,100307.41
2023-04-27T02:53:31.899Z,100312.56
2023-04-27T02:55:58.534Z,100311.72
2023-04-27T02:58:25.452Z,100321.22
2023-04-27T03:00:56.546Z,100321.19
2023-04-27T03:03:24.556Z,100330.69
2023-04-27T03:05:51.307Z,100334.16
2023-04-27T03:08:17.966Z,100334.94
2023-04-27T03:10:44.608Z,100333.22
2023-04-27T03:13:11.419Z,100334.94
2023-04-27T03:15:38.067Z,100335.91
2023-04-27T03:18:05.067Z,100338.41
2023-04-27T03:20:31.763Z,100336.72
2023-04-27T03:22:58.505Z,100334.94
2023-04-27T03:25:25.156Z,100334.13
2023-04-27T03:27:54.053Z,100341.13
2023-04-27T03:30:20.761Z,100334.19
2023-04-27T03:32:47.865Z,100347.22
2023-04-27T03:35:14.715Z,100346.22
2023-04-27T03:37:41.509Z,100337.53
2023-04-27T03:40:08.797Z,100351.41
2023-04-27T03:42:35.440Z,100351.38
2023-04-27T03:45:02.118Z,100345.31
2023-04-27T03:47:28.783Z,100353.94
2023-04-27T03:49:55.502Z,100361.66
2023-04-27T03:52:22.143Z,100362.63
2023-04-27T03:54:48.840Z,100358.28
2023-04-27T03:57:15.666Z,100359.22
2023-04-27T03:59:42.300Z,100354.84
2023-04-27T04:02:09.086Z,100366.13
2023-04-27T04:04:35.876Z,100370.53
2023-04-27T04:07:02.671Z,100373.94
2023-04-27T04:09:29.275Z,100370.47
2023-04-27T04:11:55.887Z,100377.19
2023-04-27T04:14:22.541Z,100382.16
2023-04-27T04:16:49.433Z,100389.94
2023-04-27T04:19:16.166Z,100396.00
2023-04-27T04:21:42.973Z,100389.25
2023-04-27T04:24:09.585Z,100389.28
2023-04-27T04:26:36.225Z,100398.13
2023-04-27T04:29:03.023Z,100398.06
2023-04-27T04:31:29.808Z,100402.44
2023-04-27T04:33:56.601Z,100397.22
2023-04-27T04:36:23.244Z,100405.88
2023-04-27T04:38:49.880Z,100405.91
2023-04-27T04:41:16.621Z,100410.31
2023-04-27T04:43:43.260Z,100417.41
2023-04-27T04:46:09.893Z,100413.81
2023-04-27T04:48:36.529Z,100411.13
2023-04-27T04:51:06.154Z,100408.72
2023-04-27T04:53:32.869Z,100411.25
2023-04-27T04:56:09.476Z,100414.69
2023-04-27T04:58:36.221Z,100418.16
2023-04-27T05:01:02.831Z,100417.22
2023-04-27T05:03:29.523Z,100420.81
2023-04-27T05:05:56.301Z,100424.16
2023-04-27T05:08:22.974Z,100431.22
2023-04-27T05:10:50.974Z,100429.44
2023-04-27T05:13:17.648Z,100434.59
2023-04-27T05:15:44.338Z,100434.66
2023-04-27T05:18:10.981Z,100431.19
2023-04-27T05:20:38.466Z,100442.56
2023-04-27T05:23:05.225Z,100443.50
2023-04-27T05:25:32.572Z,100440.00
2023-04-27T05:27:59.355Z,100447.00
2023-04-27T05:30:26.171Z,100441.97
2023-04-27T05:32:53.063Z,100446.44
2023-04-27T05:35:19.702Z,100448.19
2023-04-27T05:37:46.439Z,100452.63
2023-04-27T05:40:15.205Z,100453.50
2023-04-27T05:42:41.917Z,100457.88
2023-04-27T05:45:09.045Z,100457.91
2023-04-27T05:47:35.696Z,100457.03
2023-04-27T05:50:02.367Z,100459.66
2023-04-27T05:52:29.202Z,100463.19
2023-04-27T05:54:55.841Z,100461.44
2023-04-27T05:57:22.626Z,100460.56
2023-04-27T05:59:49.230Z,100458.03
2023-04-27T06:02:16.421Z,100463.28
2023-04-27T06:04:43.470Z,100466.78
2023-04-27T06:07:14.255Z,100469.38
2023-04-27T06:09:41.648Z,100480.69
2023-04-27T06:12:09.089Z,100480.66
2023-04-27T06:14:37.230Z,100471.97
2023-04-27T06:17:04.488Z,100475.44
2023-04-27T06:19:31.056Z,100474.53
2023-04-27T06:21:57.712Z,100470.16
2023-04-27T06:24:24.461Z,100480.56
2023-04-27T06:26:51.098Z,100483.16
2023-04-27T06:29:17.841Z,100476.97
2023-04-27T06:31:44.497Z,100484.72
2023-04-27T06:34:11.363Z,100480.41
2023-04-27T06:36:38.007Z,100487.31
2023-04-27T06:39:04.609Z,100481.84
2023-04-27T06:41:31.218Z,100484.44
2023-04-27T06:43:59.083Z,100482.69
2023-04-27T06:46:25.934Z,100481.69
2023-04-27T06:48:52.650Z,100491.28
2023-04-27T06:51:19.361Z,100485.75
2023-04-27T06:53:45.970Z,100490.06
2023-04-27T06:56:12.619Z,100493.56
2023-04-27T06:58:39.272Z,100485.69
2023-04-27T07:01:08.621Z,100489.44
2023-04-27T07:03:35.867Z,100488.13
2023-04-27T07:06:02.683Z,100486.56
2023-04-27T07:08:29.409Z,100490.94
2023-04-27T07:10:56.070Z,100490.66
2023-04-27T07:13:22.828Z,100490.72
2023-04-27T07:15:54.931Z,100488.09
2023-04-27T07:18:21.533Z,100494.69
2023-04-27T07:20:49.308Z,100496.47
2023-04-27T07:23:15.896Z,100491.47
2023-04-27T07:25:42.518Z,100490.25
2023-04-27T07:28:09.122Z,100496.97
2023-04-27T07:30:35.705Z,100497.34
2023-04-27T07:33:02.907Z,100489.66
2023-04-27T07:35:29.603Z,100500.97
2023-04-27T07:37:56.252Z,100504.81
2023-04-27T07:40:22.876Z,100504.81
2023-04-27T07:42:49.698Z,100504.97
2023-04-27T07:45:16.393Z,100505.59
2023-04-27T07:47:43.163Z,100494.00
2023-04-27T07:50:10.587Z,100503.56
2023-04-27T07:52:37.556Z,100498.84
2023-04-27T07:55:04.420Z,100497.22
2023-04-27T07:57:31.140Z,100501.38
2023-04-27T07:59:57.986Z,100496.25
2023-04-27T08:02:26.684Z,100495.53
2023-04-27T08:04:53.926Z,100500.00
2023-04-27T08:07:20.740Z,100510.44
2023-04-27T08:09:51.229Z,100498.75
2023-04-27T08:12:17.968Z,100502.44
2023-04-27T08:14:44.657Z,100503.59
2023-04-27T08:17:11.331Z,100499.00
2023-04-27T08:19:38.266Z,100500.75
2023-04-27T08:22:04.938Z,100505.59
2023-04-27T08:24:31.592Z,100508.94
2023-04-27T08:26:58.198Z,100510.22
2023-04-27T08:29:28.344Z,100509.38
2023-04-27T08:31:58.668Z,100506.22
2023-04-27T08:34:25.496Z,100510.34
2023-04-27T08:36:52.639Z,100496.38
2023-04-27T08:39:19.295Z,100504.41
2023-04-27T08:41:46.491Z,100504.44
2023-04-27T08:44:13.288Z,100512.00
2023-04-27T08:46:41.299Z,100511.69
2023-04-27T08:49:08.144Z,100508.75
2023-04-27T08:51:34.982Z,100500.38
2023-04-27T08:54:02.523Z,100510.06
2023-04-27T08:56:30.522Z,100507.06
2023-04-27T08:58:58.188Z,100503.94
2023-04-27T09:01:25.836Z,100506.31
2023-04-27T09:04:00.595Z,100491.69
2023-04-27T09:06:34.484Z,100490.19
2023-04-27T09:09:02.682Z,100494.22
2023-04-27T09:11:30.380Z,100483.81
2023-04-27T09:13:58.227Z,100480.19
2023-04-27T09:16:26.700Z,100478.31
2023-04-27T09:18:55.533Z,100475.59
2023-04-27T09:21:26.924Z,100479.19
2023-04-27T09:23:54.589Z,100478.81
2023-04-27T09:26:25.559Z,100475.47
2023-04-27T09:28:54.134Z,100477.25
2023-04-27T09:31:21.831Z,100473.00
2023-04-27T09:33:54.978Z,100476.22
2023-04-27T09:36:22.885Z,100476.50
2023-04-27T09:38:51.748Z,100467.19
2023-04-27T09:41:19.420Z,100471.06
2023-04-27T09:43:46.883Z,100461.56
2023-04-27T09:46:15.050Z,100456.88
2023-04-27T09:48:42.692Z,100462.91
2023-04-27T09:51:09.453Z,100463.19
2023-04-27T09:53:49.766Z,100448.91
2023-04-27T09:56:46.950Z,100463.06
2023-04-27T09:59:22.756Z,100449.59
2023-04-27T10:01:52.554Z,100455.47
2023-04-27T10:04:37.547Z,100457.50
2023-04-27T10:07:12.296Z,100446.53
2023-04-27T10:09:50.665Z,100444.09
2023-04-27T10:12:26.946Z,100441.91
2023-04-27T10:14:59.188Z,100441.84
2023-04-27T10:17:31.407Z,100438.88
2023-04-27T10:20:03.980Z,100436.63
2023-04-27T10:22:44.441Z,100435.28
2023-04-27T10:25:14.426Z,100439.34
2023-04-27T10:27:41.142Z,100431.97
2023-04-27T10:30:12.401Z,100431.28
2023-04-27T10:32:57.073Z,100440.53
2023-04-27T10:35:36.219Z,100441.09
2023-04-27T10:38:10.602Z,100436.78
2023-04-27T10:40:38.468Z,100427.06
2023-04-27T10:43:29.256Z,100435.13
2023-04-27T10:46:07.082Z,100435.31
2023-04-27T10:48:33.699Z,100435.09
2023-04-27T10:51:01.782Z,100437.28
2023-04-27T10:53:34.302Z,100429.53
2023-04-27T10:56:01.097Z,100435.63
2023-04-27T10:58:37.744Z,100435.88
2023-04-27T11:01:11.954Z,100433.72
2023-04-27T11:03:38.952Z,100443.69
2023-04-27T11:06:06.382Z,100433.25
2023-04-27T11:08:32.990Z,100435.50
2023-04-27T11:10:59.617Z,100429.88
2023-04-27T11:13:26.967Z,100431.97
2023-04-27T11:15:58.587Z,100425.41
2023-04-27T11:18:27.397Z,100425.47
2023-04-27T11:20:55.737Z,100425.03
2023-04-27T11:23:31.762Z,100427.91
2023-04-27T11:25:58.613Z,100426.91
2023-04-27T11:28:25.292Z,100415.50
2023-04-27T11:30:58.882Z,100421.78
2023-04-27T11:33:26.506Z,100421.53
2023-04-27T11:35:53.870Z,100420.91
2023-04-27T11:38:20.796Z,100423.63
2023-04-27T11:40:59.222Z,100412.63
2023-04-27T11:43:26.833Z,100417.88
2023-04-27T11:45:53.574Z,100414.47
2023-04-27T11:48:20.315Z,100411.50
2023-04-27T11:50:50.618Z,100413.19
2023-04-27T11:53:18.847Z,100409.59
2023-04-27T11:55:52.519Z,100416.63
2023-04-27T11:58:19.182Z,100413.31
2023-04-27T12:00:45.948Z,100415.06
2023-04-27T12:03:13.014Z,100408.28
2023-04-27T12:05:50.918Z,100409.06
2023-04-27T12:08:18.117Z,100409.84
2023-04-27T12:10:45.474Z,100397.44
2023-04-27T12:13:12.733Z,100393.31
2023-04-27T12:15:39.465Z,100399.13
2023-04-27T12:18:07.014Z,100400.06
2023-04-27T12:20:34.527Z,100396.34
2023-04-27T12:23:01.594Z,100393.84
2023-04-27T12:25:28.603Z,100401.59
2023-04-27T12:27:55.549Z,100401.13
2023-04-27T12:30:24.339Z,100397.72
2023-04-27T12:32:51.170Z,100404.75
2023-04-27T12:35:17.870Z,100406.22
2023-04-27T12:37:44.725Z,100407.44
2023-04-27T12:40:11.889Z,100398.53
2023-04-27T12:42:38.654Z,100397.06
2023-04-27T12:45:05.654Z,100401.78
2023-04-27T12:47:53.994Z,100398.03
2023-04-27T12:50:18.915Z,100397.50
2023-04-27T12:52:45.531Z,100389.84
2023-04-27T12:55:21.482Z,100401.53
2023-04-27T12:57:58.588Z,100390.19
2023-04-27T13:00:25.326Z,100385.72
2023-04-27T13:02:53.116Z,100388.56
2023-04-27T13:05:20.541Z,100393.44
2023-04-27T13:07:47.228Z,100395.94
2023-04-27T13:10:14.160Z,100391.31
2023-04-27T13:12:40.899Z,100391.00
2023-04-27T13:15:08.378Z,100392.78
2023-04-27T13:17:35.029Z,100389.97
2023-04-27T13:20:01.675Z,100390.25
2023-04-27T13:22:28.688Z,100392.31
2023-04-27T13:24:56.500Z,100382.09
2023-04-27T13:27:23.131Z,100382.00
2023-04-27T13:29:49.786Z,100385.28
2023-04-27T13:32:16.512Z,100389.66
2023-04-27T13:34:43.155Z,100386.19
2023-04-27T13:37:10.044Z,100399.00
2023-04-27T13:39:36.747Z,100386.53
2023-04-27T13:42:03.897Z,100386.41
2023-04-27T13:44:30.684Z,100386.28
2023-04-27T13:46:57.453Z,100389.16
2023-04-27T13:49:24.121Z,100387.91
2023-04-27T13:51:50.800Z,100396.75
2023-04-27T13:54:17.504Z,100392.66
2023-04-27T13:56:44.174Z,100394.53
2023-04-27T13:59:10.850Z,100395.84
2023-04-27T14:01:37.612Z,100381.13
2023-04-27T14:04:04.747Z,100364.69
2023-04-27T14:06:31.604Z,100387.88
2023-04-27T14:08:58.211Z,100389.00
2023-04-27T14:11:24.884Z,100394.53
2023-04-27T14:13:51.629Z,100392.94
2023-04-27T14:16:18.270Z,100398.47
2023-04-27T14:18:44.896Z,100399.84
2023-04-27T14:21:11.710Z,100405.97
2023-04-27T14:23:38.428Z,100401.19
2023-04-27T14:26:05.150Z,100400.78
2023-04-27T14:28:31.828Z,100401.06
2023-04-27T14:30:58.669Z,100411.09
2023-04-27T14:33:25.472Z,100408.09
2023-04-27T14:35:52.089Z,100402.06
2023-04-27T14:38:18.690Z,100412.13
2023-04-27T14:40:45.401Z,100409.78
2023-04-27T14:43:12.053Z,100408.31
2023-04-27T14:45:50.392Z,100410.50
2023-04-27T14:48:19.595Z,100406.34
2023-04-27T14:50:46.427Z,100407.09
2023-04-27T14:53:13.224Z,100405.75
2023-04-27T14:55:39.917Z,100394.56
2023-04-27T14:58:06.562Z,100402.44
2023-04-27T15:00:33.291Z,100409.88
2023-04-27T15:03:00.089Z,100412.25
2023-04-27T15:05:26.885Z,100407.84
2023-04-27T15:07:53.537Z,100409.47
2023-04-27T15:10:20.175Z,100404.91
2023-04-27T15:12:46.997Z,100408.31
2023-04-27T15:15:13.793Z,100413.81
2023-04-27T15:17:40.543Z,100407.91
2023-04-27T15:20:07.804Z,100399.72
2023-04-27T15:22:34.578Z,100406.19
2023-04-27T15:25:01.163Z,100398.91
2023-04-27T15:27:27.811Z,100406.44
2023-04-27T15:29:54.653Z,100410.72
2023-04-27T15:32:21.536Z,100406.81
2023-04-27T15:34:48.774Z,100406.34
2023-04-27T15:37:15.462Z,100408.34
2023-04-27T15:39:42.151Z,100404.50
2023-04-27T15:42:08.936Z,100411.28
2023-04-27T15:44:36.165Z,100394.72
2023-04-27T15:47:02.928Z,100404.53
2023-04-27T15:49:29.597Z,100406.03
2023-04-27T15:51:56.341Z,100403.41
2023-04-27T15:54:22.979Z,100412.66
2023-04-27T15:56:49.585Z,100408.75
2023-04-27T15:59:16.575Z,100402.19
2023-04-27T16:01:43.461Z,100400.94
2023-04-27T16:04:10.352Z,100408.38
2023-04-27T16:06:37.202Z,100410.53
2023-04-27T16:09:04.063Z,100404.97
2023-04-27T16:11:31.629Z,100407.00
2023-04-27T16:13:58.693Z,100409.94
2023-04-27T16:16:25.439Z,100406.94
2023-04-27T16:18:52.249Z,100412.91
2023-04-27T16:21:18.860Z,100418.34
2023-04-27T16:23:45.721Z,100416.56
2023-04-27T16:26:12.333Z,100419.81
2023-04-27T16:28:38.920Z,100415.16
2023-04-27T16:31:05.578Z,100425.22
2023-04-27T16:33:32.422Z,100430.78
2023-04-27T16:35:59.138Z,100427.31
2023-04-27T16:38:25.926Z,100420.91
2023-04-27T16:40:52.594Z,100425.25
2023-04-27T16:43:19.324Z,100435.53
2023-04-27T16:45:46.101Z,100431.69
2023-04-27T16:48:12.910Z,100433.44
2023-04-27T16:50:39.742Z,100432.34
2023-04-27T16:53:08.445Z,100438.78
2023-04-27T16:55:35.791Z,100436.03
2023-04-27T16:58:02.546Z,100430.09
2023-04-27T17:00:29.347Z,100431.28
2023-04-27T17:02:56.031Z,100432.75
2023-04-27T17:05:22.876Z,100432.34
2023-04-27T17:07:49.512Z,100444.72
2023-04-27T17:10:16.246Z,100448.00
2023-04-27T17:12:42.822Z,100449.59
2023-04-27T17:15:10.997Z,100452.19
2023-04-27T17:17:38.122Z,100451.13
2023-04-27T17:20:05.375Z,100450.03
2023-04-27T17:22:32.158Z,100448.94
2023-04-27T17:24:58.925Z,100449.91
2023-04-27T17:27:25.579Z,100454.81
2023-04-27T17:29:54.244Z,100451.16
2023-04-27T17:32:20.921Z,100456.25
2023-04-27T17:34:47.733Z,100457.38
2023-04-27T17:37:14.351Z,100462.38
2023-04-27T17:39:40.936Z,100470.03
2023-04-27T17:42:07.565Z,100472.31
2023-04-27T17:44:34.187Z,100472.13
2023-04-27T17:47:01.024Z,100467.91
2023-04-27T17:49:27.751Z,100470.31
2023-04-27T17:51:54.351Z,100477.88
2023-04-27T17:54:21.107Z,100467.41
2023-04-27T17:56:50.081Z,100481.84
2023-04-27T17:59:17.134Z,100485.72
2023-04-27T18:01:44.039Z,100487.84
2023-04-27T18:04:10.891Z,100484.31
2023-04-27T18:06:37.631Z,100490.75
2023-04-27T18:09:04.443Z,100489.59
2023-04-27T18:11:31.183Z,100489.47
2023-04-27T18:13:57.890Z,100492.47
2023-04-27T18:16:24.806Z,100488.19
2023-04-27T18:18:51.417Z,100492.81
2023-04-27T18:21:18.227Z,100495.66
2023-04-27T18:23:45.071Z,100497.72
2023-04-27T18:26:11.950Z,100501.41
2023-04-27T18:28:38.608Z,100503.22
2023-04-27T18:31:13.750Z,100510.56
2023-04-27T18:33:40.357Z,100509.19
2023-04-27T18:36:08.356Z,100516.38
2023-04-27T18:38:35.106Z,100513.84
2023-04-27T18:41:01.979Z,100516.38
2023-04-27T18:43:28.740Z,100520.59
2023-04-27T18:45:55.381Z,100519.47
2023-04-27T18:48:22.070Z,100525.44
2023-04-27T18:50:48.812Z,100527.53
2023-04-27T18:53:15.588Z,100529.16
2023-04-27T18:55:42.397Z,100527.78
2023-04-27T18:58:09.119Z,100531.75
2023-04-27T19:00:37.868Z,100535.19
2023-04-27T19:03:05.795Z,100538.75
2023-04-27T19:05:32.769Z,100539.31
2023-04-27T19:07:59.555Z,100528.16
2023-04-27T19:10:26.247Z,100542.38
2023-04-27T19:12:53.109Z,100549.31
2023-04-27T19:15:19.734Z,100549.25
2023-04-27T19:17:52.568Z,100551.84
2023-04-27T19:20:25.107Z,100550.84
2023-04-27T19:22:51.911Z,100558.44
2023-04-27T19:25:18.542Z,100546.81
2023-04-27T19:27:45.196Z,100552.28
2023-04-27T19:30:12.069Z,100555.81
2023-04-27T19:32:38.880Z,100558.09
2023-04-27T19:35:05.711Z,100556.69
2023-04-27T19:37:32.325Z,100555.53
2023-04-27T19:40:01.656Z,100566.34
2023-04-27T19:42:28.284Z,100565.81
2023-04-27T19:44:54.883Z,100559.84
2023-04-27T19:47:21.631Z,100564.25
2023-04-27T19:49:48.224Z,100556.41
2023-04-27T19:52:14.866Z,100560.75
2023-04-27T19:54:41.653Z,100551.19
2023-04-27T19:57:08.309Z,100551.94
2023-04-27T19:59:34.976Z,100562.06
2023-04-27T20:02:01.644Z,100563.75
2023-04-27T20:04:29.804Z,100558.63
2023-04-27T20:06:56.914Z,100557.94
2023-04-27T20:09:23.566Z,100562.47
2023-04-27T20:11:50.250Z,100555.50
2023-04-27T20:14:17.201Z,100557.94
2023-04-27T20:16:44.378Z,100557.06
2023-04-27T20:19:11.056Z,100556.41
2023-04-27T20:21:37.932Z,100557.41
2023-04-27T20:24:04.627Z,100553.91
2023-04-27T20:26:31.242Z,100553.09
2023-04-27T20:28:58.101Z,100556.88
2023-04-27T20:31:24.738Z,100562.38
2023-04-27T20:33:52.047Z,100561.63
2023-04-27T20:36:18.718Z,100560.88
2023-04-27T20:38:47.806Z,100563.53
2023-04-27T20:41:14.659Z,100562.59
2023-04-27T20:43:41.288Z,100563.78
2023-04-27T20:46:10.698Z,100558.53
2023-04-27T20:48:37.976Z,100560.09
2023-04-27T20:51:05.069Z,100572.28
2023-04-27T20:53:31.835Z,100567.03
2023-04-27T20:55:58.534Z,100565.22
2023-04-27T20:58:25.412Z,100566.09
2023-04-27T21:00:52.129Z,100565.31
2023-04-27T21:03:18.996Z,100567.06
2023-04-27T21:05:45.803Z,100567.72
2023-04-27T21:08:12.443Z,100567.13
2023-04-27T21:10:39.045Z,100568.31
2023-04-27T21:13:05.769Z,100571.00
2023-04-27T21:15:32.604Z,100570.13
2023-04-27T21:17:59.378Z,100576.16
2023-04-27T21:20:26.427Z,100580.56
2023-04-27T21:22:53.187Z,100576.22
2023-04-27T21:25:20.668Z,100582.53
2023-04-27T21:27:48.514Z,100584.38
2023-04-27T21:30:15.460Z,100593.91
2023-04-27T21:32:42.424Z,100589.66
2023-04-27T21:35:09.667Z,100582.44
2023-04-27T21:37:36.322Z,100581.81
2023-04-27T21:40:03.209Z,100588.78
2023-04-27T21:42:30.022Z,100593.09
2023-04-27T21:44:59.042Z,100593.94
2023-04-27T21:47:25.765Z,100594.94
2023-04-27T21:49:52.766Z,100593.19
2023-04-27T21:52:19.539Z,100600.09
2023-04-27T21:54:46.200Z,100603.59
2023-04-27T21:57:12.880Z,100606.19
2023-04-27T21:59:39.588Z,100604.50
2023-04-27T22:02:06.320Z,100608.09
2023-04-27T22:04:39.163Z,100604.59
2023-04-27T22:07:06.823Z,100616.78
2023-04-27T22:09:33.611Z,100619.53
2023-04-27T22:12:00.261Z,100620.53
2023-04-27T22:14:26.915Z,100611.84
2023-04-27T22:16:56.945Z,100610.91
2023-04-27T22:19:24.640Z,100609.97
2023-04-27T22:21:51.603Z,100612.56
2023-04-27T22:24:18.479Z,100610.75
2023-04-27T22:26:45.312Z,100621.22
2023-04-27T22:29:11.994Z,100621.47
2023-04-27T22:31:38.779Z,100617.94
2023-04-27T22:34:05.751Z,100620.56
2023-04-27T22:36:33.366Z,100620.56
2023-04-27T22:39:00.285Z,100620.63
2023-04-27T22:41:26.928Z,100618.75
2023-04-27T22:43:53.570Z,100626.69
2023-04-27T22:46:20.263Z,100638.97
2023-04-27T22:48:46.985Z,100638.13
2023-04-27T22:51:13.671Z,100632.91
2023-04-27T22:53:40.396Z,100631.13
2023-04-27T22:56:07.200Z,100639.03
2023-04-27T22:58:33.937Z,100635.50
2023-04-27T23:01:00.780Z,100633.78
2023-04-27T23:03:27.580Z,100639.88
2023-04-27T23:05:54.602Z,100641.66
2023-04-27T23:08:21.747Z,100633.75
2023-04-27T23:10:48.391Z,100639.88
2023-04-27T23:13:15.089Z,100636.41
2023-04-27T23:15:41.762Z,100636.47
2023-04-27T23:18:08.652Z,100628.63
2023-04-27T23:20:35.368Z,100639.06
2023-04-27T23:23:02.043Z,100638.91
2023-04-27T23:25:28.715Z,100638.19
2023-04-27T23:27:55.344Z,100635.50
2023-04-27T23:30:22.167Z,100641.53
2023-04-27T23:32:48.895Z,100643.41
2023-04-27T23:35:15.574Z,100645.16
2023-04-27T23:37:42.645Z,100646.94
2023-04-27T23:40:09.563Z,100634.75
2023-04-27T23:42:36.209Z,100639.94
2023-04-27T23:45:03.134Z,100649.50
2023-04-27T23:47:29.875Z,100649.53
2023-04-27T23:49:56.577Z,100646.94
2023-04-27T23:52:23.212Z,100644.28
2023-04-27T23:54:49.838Z,100644.28
2023-04-27T23:57:16.467Z,100646.91
2023-04-27T23:59:43.267Z,100647.78
